Time;durP1;ratioP1;P1;durP2;ratioP2;P2;SDS_P1;SDS_P2;PMS_P1;PMS_P2;Temp;Humidity;BMP_temperature;BMP_pressure;BME280_temperature;BME280_humidity;BME280_pressure;Samples;Min_cycle;Max_cycle;Signal;HPM_P1;HPM_P2
2024/01/13 00:00:00;;;;;;;7.97;5.00;;;10.20;99.90;;;;;;10478950;28;20214;-87
2024/01/13 00:05:06;;;;;;;8.33;5.50;;;10.20;99.90;;;;;;10508700;28;20239;-86
2024/01/13 00:10:08;;;;;;;9.13;6.53;;;10.30;99.90;;;;;;10502273;28;20200;-86
2024/01/13 00:15:11;;;;;;;5.20;3.33;;;9.80;99.90;;;;;;10502962;28;20213;-85
2024/01/13 00:20:15;;;;;;;11.00;6.70;;;10.10;99.90;;;;;;10506109;28;20228;-85
2024/01/13 00:25:22;;;;;;;6.70;5.17;;;10.40;99.90;;;;;;10471167;28;20277;-86
2024/01/13 00:30:24;;;;;;;7.90;4.57;;;10.00;99.90;;;;;;10468355;28;20244;-88
2024/01/13 00:35:27;;;;;;;5.33;3.23;;;10.00;99.90;;;;;;10465931;28;20213;-87
2024/01/13 00:40:29;;;;;;;5.77;3.50;;;10.20;99.90;;;;;;10466219;28;20257;-87
2024/01/13 00:45:32;;;;;;;6.07;4.53;;;10.40;99.90;;;;;;10465926;28;20201;-86
2024/01/13 00:50:35;;;;;;;8.27;5.43;;;10.30;99.90;;;;;;10505824;28;20212;-87
2024/01/13 00:55:38;;;;;;;6.40;3.93;;;9.80;99.90;;;;;;10505916;28;20200;-87
2024/01/13 01:00:40;;;;;;;10.40;7.40;;;10.00;99.90;;;;;;10505421;28;20270;-87
2024/01/13 01:05:43;;;;;;;10.23;6.27;;;9.50;99.90;;;;;;10472272;28;20214;-87
2024/01/13 01:10:45;;;;;;;6.40;4.43;;;9.80;99.90;;;;;;10476567;28;20225;-87
2024/01/13 01:15:49;;;;;;;5.50;3.73;;;10.10;99.90;;;;;;10505220;28;20216;-88
2024/01/13 01:20:51;;;;;;;8.83;4.90;;;10.00;99.90;;;;;;10505610;28;20586;-88
2024/01/13 01:25:53;;;;;;;7.67;4.30;;;9.30;99.90;;;;;;10472766;28;20254;-88
2024/01/13 01:30:56;;;;;;;7.23;4.90;;;9.90;99.90;;;;;;10459009;28;20236;-87
2024/01/13 01:35:59;;;;;;;5.60;4.10;;;9.40;99.90;;;;;;10457053;28;20200;-87
2024/01/13 01:41:02;;;;;;;6.93;5.00;;;9.90;99.90;;;;;;10457728;28;20220;-87
2024/01/13 01:46:05;;;;;;;10.30;5.57;;;10.20;99.90;;;;;;10470264;28;20253;-88
2024/01/13 01:51:10;;;;;;;15.83;7.83;;;10.10;99.90;;;;;;10498897;28;20204;-87
2024/01/13 01:56:16;;;;;;;6.83;5.37;;;10.10;99.90;;;;;;10496485;28;20207;-87
2024/01/13 02:01:21;;;;;;;7.23;4.50;;;9.50;99.90;;;;;;10496712;28;20250;-88
2024/01/13 02:06:24;;;;;;;7.60;5.40;;;9.40;99.90;;;;;;10496242;28;20236;-87
2024/01/13 02:11:27;;;;;;;11.07;7.63;;;9.20;99.90;;;;;;10494737;28;20332;-87
2024/01/13 02:16:30;;;;;;;9.60;6.20;;;9.40;99.90;;;;;;10456337;28;20203;-87
2024/01/13 02:21:35;;;;;;;11.37;6.57;;;9.30;99.90;;;;;;10454682;28;20218;-87
2024/01/13 02:26:38;;;;;;;13.03;7.40;;;9.30;99.90;;;;;;10453685;28;20667;-87
2024/01/13 02:31:41;;;;;;;12.10;7.10;;;8.80;99.90;;;;;;10452894;28;20281;-87
2024/01/13 02:36:43;;;;;;;7.27;4.07;;;8.50;99.90;;;;;;10459381;28;20242;-88
2024/01/13 02:41:46;;;;;;;12.73;8.37;;;8.70;99.90;;;;;;10476446;28;20228;-87
2024/01/13 02:46:48;;;;;;;4.67;3.43;;;8.80;99.90;;;;;;10452767;28;20260;-88
2024/01/13 02:51:51;;;;;;;10.53;6.73;;;9.10;99.90;;;;;;10493544;28;20236;-87
2024/01/13 02:56:53;;;;;;;8.20;4.70;;;9.40;99.90;;;;;;10494158;28;20204;-87
2024/01/13 03:01:56;;;;;;;9.37;5.67;;;9.80;99.90;;;;;;10503933;28;20231;-88
2024/01/13 03:06:59;;;;;;;5.80;2.93;;;10.00;99.90;;;;;;10469544;28;20273;-87
2024/01/13 03:12:02;;;;;;;8.13;4.87;;;9.80;99.90;;;;;;10461539;28;20268;-87
2024/01/13 03:17:05;;;;;;;8.57;5.27;;;9.90;99.90;;;;;;10462333;28;20205;-88
2024/01/13 03:22:07;;;;;;;5.00;3.40;;;9.90;99.90;;;;;;10477557;28;20278;-88
2024/01/13 03:27:10;;;;;;;16.40;8.63;;;9.30;99.90;;;;;;10481648;28;20675;-88
2024/01/13 03:32:12;;;;;;;10.83;6.77;;;8.90;99.90;;;;;;10501678;28;20252;-88
2024/01/13 03:37:15;;;;;;;16.07;8.17;;;8.60;99.90;;;;;;10491990;28;20280;-88
2024/01/13 03:42:17;;;;;;;4.90;3.37;;;8.40;99.90;;;;;;10485375;28;20276;-87
2024/01/13 03:47:22;;;;;;;2.60;2.23;;;8.80;99.90;;;;;;10459587;28;20294;-87
2024/01/13 03:52:24;;;;;;;11.83;8.03;;;9.10;99.90;;;;;;10455738;28;20234;-88
2024/01/13 03:57:27;;;;;;;6.17;4.13;;;9.90;99.90;;;;;;10455733;28;20905;-87
2024/01/13 04:02:29;;;;;;;11.60;7.57;;;9.80;99.90;;;;;;10455776;28;20252;-88
2024/01/13 04:07:32;;;;;;;10.83;8.37;;;9.80;99.90;;;;;;10455816;28;20304;-88
2024/01/13 04:12:36;;;;;;;9.17;6.77;;;9.20;99.90;;;;;;10486403;28;20234;-88
2024/01/13 04:17:38;;;;;;;10.30;5.47;;;8.70;99.90;;;;;;10466646;28;20288;-87
2024/01/13 04:22:41;;;;;;;8.53;5.37;;;9.00;99.90;;;;;;10484034;28;20320;-87
2024/01/13 04:27:44;;;;;;;6.50;5.13;;;9.50;99.90;;;;;;10496469;28;20664;-88
2024/01/13 04:32:46;;;;;;;12.03;6.63;;;9.00;99.90;;;;;;10496363;28;20263;-87
2024/01/13 04:37:49;;;;;;;5.47;3.47;;;8.90;99.90;;;;;;10495208;28;20705;-87
2024/01/13 04:42:51;;;;;;;5.47;3.40;;;9.40;99.90;;;;;;10493562;28;20732;-87
2024/01/13 04:47:54;;;;;;;11.00;8.93;;;9.50;99.90;;;;;;10468758;28;20281;-87
2024/01/13 04:52:57;;;;;;;11.50;6.87;;;7.70;99.90;;;;;;10472163;28;20253;-87
2024/01/13 04:57:59;;;;;;;9.77;7.30;;;8.10;99.90;;;;;;10493938;28;20635;-87
2024/01/13 05:03:02;;;;;;;7.00;4.87;;;8.70;99.90;;;;;;10480879;28;20310;-87
2024/01/13 05:08:04;;;;;;;9.87;5.70;;;8.00;99.90;;;;;;10453081;28;20228;-88
2024/01/13 05:13:07;;;;;;;11.97;7.70;;;7.90;99.90;;;;;;10453273;28;20306;-87
2024/01/13 05:18:09;;;;;;;5.33;3.40;;;8.20;99.90;;;;;;10453101;28;20254;-87
2024/01/13 05:23:12;;;;;;;13.47;8.30;;;7.90;99.90;;;;;;10478743;28;20250;-88
2024/01/13 05:28:15;;;;;;;5.90;4.37;;;8.70;99.90;;;;;;10452558;28;20258;-87
2024/01/13 05:33:17;;;;;;;13.07;6.47;;;8.90;99.90;;;;;;10450324;28;20269;-87
2024/01/13 05:38:20;;;;;;;8.60;4.87;;;9.90;99.90;;;;;;10451919;28;20284;-87
2024/01/13 05:43:23;;;;;;;6.93;3.57;;;10.10;99.90;;;;;;10457320;28;20262;-87
2024/01/13 05:48:25;;;;;;;12.87;7.07;;;9.80;99.90;;;;;;10452090;28;20237;-87
2024/01/13 05:53:28;;;;;;;6.07;5.37;;;10.10;99.90;;;;;;10459348;28;20231;-88
2024/01/13 05:58:31;;;;;;;4.67;3.63;;;9.70;99.90;;;;;;10488309;28;20257;-88
2024/01/13 06:03:33;;;;;;;7.90;5.33;;;9.70;99.90;;;;;;10493770;28;20303;-88
2024/01/13 06:08:36;;;;;;;8.17;5.97;;;10.30;99.90;;;;;;10493232;28;20230;-88
2024/01/13 06:13:39;;;;;;;8.27;4.27;;;10.40;99.90;;;;;;10476530;28;20241;-87
2024/01/13 06:18:42;;;;;;;4.83;3.30;;;10.40;99.90;;;;;;10476860;28;20240;-88
2024/01/13 06:23:45;;;;;;;13.50;6.07;;;10.20;99.90;;;;;;10453834;28;20254;-87
2024/01/13 06:28:48;;;;;;;8.80;3.40;;;10.20;99.90;;;;;;10464065;28;20686;-87
2024/01/13 06:33:50;;;;;;;6.10;4.10;;;10.30;99.90;;;;;;10490194;28;20241;-88
2024/01/13 06:38:54;;;;;;;3.87;2.73;;;10.30;99.90;;;;;;10490293;28;20235;-88
2024/01/13 06:43:56;;;;;;;11.87;5.40;;;10.50;99.90;;;;;;10449806;28;20325;-87
2024/01/13 06:48:59;;;;;;;4.67;2.17;;;10.10;99.90;;;;;;10475213;28;20648;-88
2024/01/13 06:54:02;;;;;;;5.47;3.90;;;10.20;99.90;;;;;;10449247;28;20235;-87
2024/01/13 06:59:05;;;;;;;8.43;5.20;;;10.20;99.90;;;;;;10449626;28;20234;-89
2024/01/13 07:04:09;;;;;;;9.97;4.87;;;9.90;99.90;;;;;;10468460;28;20998;-89
2024/01/13 07:09:12;;;;;;;6.77;2.93;;;9.50;99.90;;;;;;10487291;28;20234;-88
2024/01/13 07:14:14;;;;;;;5.17;4.13;;;9.10;99.90;;;;;;10483831;28;20233;-88
2024/01/13 07:19:17;;;;;;;8.30;4.67;;;8.70;99.90;;;;;;10477602;28;20230;-89
2024/01/13 07:24:20;;;;;;;9.27;5.30;;;8.70;99.90;;;;;;10468377;28;20263;-88
2024/01/13 07:29:23;;;;;;;5.17;3.83;;;8.50;99.90;;;;;;10490087;28;20254;-89
2024/01/13 07:34:26;;;;;;;9.20;4.83;;;8.40;99.90;;;;;;10489791;28;20671;-88
2024/01/13 07:39:28;;;;;;;8.73;5.63;;;8.30;99.90;;;;;;10454412;28;20235;-88
2024/01/13 07:44:31;;;;;;;7.50;5.23;;;8.10;99.90;;;;;;10452283;28;20311;-85
2024/01/13 07:49:33;;;;;;;9.87;6.37;;;7.70;99.90;;;;;;10464392;28;20688;-87
2024/01/13 07:54:36;;;;;;;6.80;5.07;;;7.70;99.90;;;;;;10454499;28;20268;-87
2024/01/13 07:59:38;;;;;;;7.27;5.50;;;7.20;99.90;;;;;;10470618;28;20250;-87
2024/01/13 08:04:43;;;;;;;6.23;4.47;;;7.80;99.90;;;;;;10457840;28;20251;-87
2024/01/13 08:09:47;;;;;;;8.10;4.50;;;7.80;99.90;;;;;;10462285;28;20222;-87
2024/01/13 08:14:49;;;;;;;5.70;4.23;;;6.50;99.90;;;;;;10481302;28;20267;-87
2024/01/13 08:19:52;;;;;;;5.20;3.90;;;6.80;99.90;;;;;;10460962;28;20271;-87
2024/01/13 08:24:54;;;;;;;7.77;5.23;;;6.20;99.90;;;;;;10455357;28;20266;-87
2024/01/13 08:29:57;;;;;;;8.47;5.33;;;6.50;99.90;;;;;;10454949;28;20256;-88
2024/01/13 08:34:59;;;;;;;6.40;4.60;;;6.80;99.90;;;;;;10454130;28;20296;-88
2024/01/13 08:40:04;;;;;;;5.73;4.80;;;7.50;99.90;;;;;;10488068;28;20229;-88
2024/01/13 08:45:07;;;;;;;9.53;5.63;;;8.00;99.90;;;;;;10467464;28;20242;-88
2024/01/13 08:50:10;;;;;;;12.87;6.37;;;7.90;99.90;;;;;;10460490;28;20227;-86
2024/01/13 08:55:13;;;;;;;6.10;3.97;;;7.70;99.90;;;;;;10452738;28;20631;-87
2024/01/13 09:00:15;;;;;;;13.97;9.13;;;7.50;99.90;;;;;;10453173;28;20302;-87
2024/01/13 09:05:18;;;;;;;10.83;7.63;;;7.40;99.90;;;;;;10465088;28;20697;-86
2024/01/13 09:10:20;;;;;;;7.17;4.40;;;7.10;99.90;;;;;;10478108;28;20240;-86
2024/01/13 09:15:23;;;;;;;8.57;4.90;;;7.20;99.90;;;;;;10493308;28;20303;-87
2024/01/13 09:20:26;;;;;;;12.03;7.30;;;8.00;99.90;;;;;;10493759;28;20284;-87
2024/01/13 09:25:28;;;;;;;6.53;4.63;;;8.40;99.90;;;;;;10481042;28;20337;-86
2024/01/13 09:30:31;;;;;;;10.97;5.47;;;9.20;99.90;;;;;;10478965;28;20277;-86
2024/01/13 09:35:33;;;;;;;6.07;4.70;;;9.80;99.90;;;;;;10452151;28;20238;-86
2024/01/13 09:40:41;;;;;;;8.37;6.30;;;10.00;99.90;;;;;;10456498;28;20228;-86
2024/01/13 09:45:47;;;;;;;3.23;2.83;;;9.40;99.90;;;;;;10491224;28;20251;-86
2024/01/13 09:50:52;;;;;;;9.67;5.20;;;10.30;99.90;;;;;;10472631;28;20231;-85
2024/01/13 09:56:05;;;;;;;4.57;4.07;;;10.70;99.90;;;;;;10466247;28;20259;-85
2024/01/13 10:01:07;;;;;;;2.50;2.30;;;10.70;99.90;;;;;;10465583;28;20305;-86
2024/01/13 10:06:18;;;;;;;6.63;4.43;;;10.90;99.90;;;;;;10483665;28;20254;-86
2024/01/13 10:11:21;;;;;;;3.07;2.37;;;11.10;99.90;;;;;;10449344;28;20231;-86
2024/01/13 10:16:34;;;;;;;3.87;2.87;;;11.20;99.90;;;;;;10449935;28;20238;-86
2024/01/13 10:21:36;;;;;;;5.83;4.00;;;11.30;99.90;;;;;;10450212;28;20286;-86
2024/01/13 10:26:42;;;;;;;8.57;5.60;;;11.50;99.90;;;;;;10449945;28;20239;-86
2024/01/13 10:31:48;;;;;;;5.93;4.10;;;11.30;99.90;;;;;;10456676;28;20290;-87
2024/01/13 10:36:51;;;;;;;7.37;3.73;;;11.20;99.90;;;;;;10478218;28;20230;-86
2024/01/13 10:41:54;;;;;;;6.23;5.27;;;11.30;99.90;;;;;;10486629;28;20259;-86
2024/01/13 10:47:00;;;;;;;3.70;3.40;;;11.10;99.90;;;;;;10450510;28;20596;-86
2024/01/13 10:52:03;;;;;;;5.27;3.87;;;11.30;99.90;;;;;;10449775;28;20294;-86
2024/01/13 10:57:06;;;;;;;3.07;2.20;;;11.30;99.90;;;;;;10467240;28;20240;-86
2024/01/13 11:02:11;;;;;;;8.90;7.00;;;11.20;99.90;;;;;;10472486;28;20300;-85
2024/01/13 11:07:14;;;;;;;11.67;7.37;;;7.90;99.90;;;;;;10448586;28;20230;-86
2024/01/13 11:12:28;;;;;;;9.00;6.13;;;7.70;99.90;;;;;;10452474;28;20238;-86
2024/01/13 11:17:30;;;;;;;6.43;5.10;;;9.20;99.90;;;;;;10467596;28;20614;-86
2024/01/13 11:22:38;;;;;;;9.50;6.33;;;10.10;99.90;;;;;;10477467;28;20257;-86
2024/01/13 11:27:43;;;;;;;9.77;5.20;;;10.40;99.90;;;;;;10497991;28;20252;-85
2024/01/13 11:32:46;;;;;;;9.00;5.53;;;10.60;99.90;;;;;;10482928;28;20300;-85
2024/01/13 11:37:54;;;;;;;8.10;6.97;;;10.30;99.90;;;;;;10462067;28;20227;-87
2024/01/13 11:43:03;;;;;;;7.17;5.67;;;9.40;99.90;;;;;;10459660;28;20250;-86
2024/01/13 11:48:41;;;;;;;7.77;6.43;;;5.90;99.90;;;;;;10469547;28;20254;-85
2024/01/13 11:53:46;;;;;;;9.20;8.23;;;4.00;99.90;;;;;;10326632;28;20253;-86
2024/01/13 11:58:48;;;;;;;10.77;8.03;;;3.10;99.90;;;;;;10326469;28;20357;-86
2024/01/13 12:03:51;;;;;;;14.17;7.23;;;2.60;99.90;;;;;;10325428;28;20275;-86
2024/01/13 12:08:53;;;;;;;12.43;6.77;;;4.20;99.90;;;;;;10326290;28;20228;-86
2024/01/13 12:13:56;;;;;;;9.60;8.30;;;7.30;99.90;;;;;;10326308;28;20618;-85
2024/01/13 12:18:59;;;;;;;10.60;7.23;;;7.60;99.90;;;;;;10327169;28;20299;-88
2024/01/13 12:24:02;;;;;;;11.70;6.57;;;4.00;99.90;;;;;;10357770;28;20261;-87
2024/01/13 12:29:08;;;;;;;11.13;7.90;;;6.30;99.90;;;;;;10471572;28;20246;-86
2024/01/13 12:34:11;;;;;;;6.47;4.70;;;7.90;99.90;;;;;;10493888;28;20300;-86
2024/01/13 12:39:14;;;;;;;6.47;3.93;;;8.90;99.90;;;;;;10478653;28;20282;-87
2024/01/13 12:44:17;;;;;;;7.50;4.20;;;9.40;99.90;;;;;;10488044;28;20248;-86
2024/01/13 12:49:19;;;;;;;9.83;5.50;;;9.60;99.90;;;;;;10464350;28;20228;-87
2024/01/13 12:54:22;;;;;;;9.43;6.17;;;9.70;99.90;;;;;;10493556;28;20269;-86
2024/01/13 12:59:27;;;;;;;6.90;4.60;;;10.10;99.90;;;;;;10494306;28;20317;-86
2024/01/13 13:04:30;;;;;;;7.30;4.83;;;10.30;99.90;;;;;;10484242;28;20251;-86
2024/01/13 13:09:33;;;;;;;5.43;3.77;;;10.50;99.90;;;;;;10494685;28;20236;-86
2024/01/13 13:14:35;;;;;;;7.90;4.53;;;10.50;99.90;;;;;;10463298;28;20299;-86
2024/01/13 13:19:38;;;;;;;3.77;2.73;;;10.60;99.90;;;;;;10454527;28;20232;-86
2024/01/13 13:24:42;;;;;;;7.33;5.27;;;10.90;99.90;;;;;;10466413;28;20251;-87
2024/01/13 13:29:45;;;;;;;3.40;3.03;;;10.60;99.90;;;;;;10457420;28;20313;-86
2024/01/13 13:34:47;;;;;;;5.33;3.00;;;10.90;99.90;;;;;;10452337;28;20627;-87
2024/01/13 13:39:58;;;;;;;5.23;2.77;;;11.00;99.90;;;;;;10460808;28;20747;-87
2024/01/13 13:45:00;;;;;;;6.33;5.23;;;11.10;99.90;;;;;;10480960;28;20711;-87
2024/01/13 13:50:15;;;;;;;7.57;4.50;;;10.90;99.90;;;;;;10491004;28;20631;-87
2024/01/13 13:55:19;;;;;;;3.30;3.00;;;11.20;99.90;;;;;;10463854;28;20875;-86
2024/01/13 14:00:24;;;;;;;8.00;3.90;;;11.30;99.90;;;;;;10486596;28;20239;-86
2024/01/13 14:05:27;;;;;;;10.37;4.80;;;11.30;99.90;;;;;;10489931;28;20254;-86
2024/01/13 14:10:30;;;;;;;30.90;5.83;;;10.10;99.90;;;;;;10491892;28;20223;-87
2024/01/13 14:15:33;;;;;;;4.97;2.90;;;10.50;99.90;;;;;;10471438;28;20245;-87
2024/01/13 14:20:37;;;;;;;10.40;4.97;;;11.00;99.90;;;;;;10475226;28;20238;-87
2024/01/13 14:25:41;;;;;;;7.07;4.50;;;11.50;99.90;;;;;;10483003;28;20240;-86
2024/01/13 14:30:44;;;;;;;5.13;4.07;;;11.40;99.90;;;;;;10455259;28;20251;-86
2024/01/13 14:35:47;;;;;;;5.23;3.13;;;11.40;99.90;;;;;;10491177;28;20672;-86
2024/01/13 14:40:49;;;;;;;6.43;4.83;;;11.50;99.90;;;;;;10489754;28;20292;-85
2024/01/13 14:45:52;;;;;;;6.60;5.33;;;9.30;99.90;;;;;;10464567;28;20299;-84
2024/01/13 14:50:55;;;;;;;9.40;5.97;;;6.30;99.90;;;;;;10490315;28;20229;-84
2024/01/13 14:55:58;;;;;;;8.40;4.60;;;5.00;99.90;;;;;;10488306;28;20268;-84
2024/01/13 15:01:01;;;;;;;5.83;5.30;;;4.50;99.90;;;;;;10449626;28;20264;-84
2024/01/13 15:06:04;;;;;;;8.80;6.77;;;3.70;99.90;;;;;;10448710;28;20296;-84
2024/01/13 15:11:07;;;;;;;10.23;7.27;;;3.10;99.90;;;;;;10448441;28;20242;-84
2024/01/13 15:16:09;;;;;;;8.33;4.63;;;2.70;99.90;;;;;;10448476;28;20650;-85
2024/01/13 15:21:12;;;;;;;7.60;6.03;;;2.30;99.90;;;;;;10457046;28;20644;-85
2024/01/13 15:26:15;;;;;;;11.40;8.13;;;2.10;99.90;;;;;;10466110;28;20250;-84
2024/01/13 15:31:17;;;;;;;10.87;7.73;;;1.90;99.90;;;;;;10457888;28;20275;-84
2024/01/13 15:36:20;;;;;;;8.03;7.20;;;1.90;99.90;;;;;;10467581;28;20295;-84
2024/01/13 15:41:22;;;;;;;17.13;9.77;;;1.70;99.90;;;;;;10471765;28;20715;-84
2024/01/13 15:46:25;;;;;;;7.10;5.20;;;1.90;99.90;;;;;;10487869;28;20249;-85
2024/01/13 15:51:28;;;;;;;6.37;5.00;;;5.80;99.90;;;;;;10487877;28;20739;-85
2024/01/13 15:56:31;;;;;;;10.30;6.50;;;8.20;99.90;;;;;;10463648;28;20285;-84
2024/01/13 16:01:33;;;;;;;6.37;2.60;;;9.00;99.90;;;;;;10137597;28;9999890;-85
2024/01/13 16:06:36;;;;;;;7.73;3.90;;;9.70;99.90;;;;;;10463735;28;20261;-85
2024/01/13 16:11:39;;;;;;;6.03;3.87;;;10.30;99.90;;;;;;10451035;28;20253;-84
2024/01/13 16:16:41;;;;;;;7.27;4.17;;;10.50;99.90;;;;;;10452435;28;20309;-85
2024/01/13 16:21:44;;;;;;;7.00;3.70;;;10.80;99.90;;;;;;10461942;28;20703;-86
2024/01/13 16:26:49;;;;;;;10.60;3.23;;;10.90;99.90;;;;;;10449388;28;20273;-87
2024/01/13 16:31:52;;;;;;;7.90;3.10;;;11.10;99.90;;;;;;10450777;28;20261;-86
2024/01/13 16:36:55;;;;;;;7.97;4.70;;;9.40;99.90;;;;;;10448265;28;20248;-86
2024/01/13 16:41:57;;;;;;;4.77;2.73;;;10.40;99.90;;;;;;10449521;28;20295;-85
2024/01/13 16:47:02;;;;;;;11.23;4.77;;;10.80;99.90;;;;;;10451336;28;20322;-85
2024/01/13 16:52:04;;;;;;;6.63;3.23;;;10.80;99.90;;;;;;10448305;28;20670;-85
2024/01/13 16:57:07;;;;;;;6.60;3.70;;;11.20;99.90;;;;;;10450610;28;20260;-85
2024/01/13 17:02:10;;;;;;;6.50;3.57;;;11.00;99.90;;;;;;10468061;28;20235;-85
2024/01/13 17:07:15;;;;;;;6.50;4.07;;;11.20;99.90;;;;;;10467366;28;20312;-85
2024/01/13 17:12:17;;;;;;;7.10;4.67;;;11.30;99.90;;;;;;10470049;28;20244;-85
2024/01/13 17:17:38;;;;;;;5.53;2.73;;;11.10;99.90;;;;;;10476058;28;20287;-85
2024/01/13 17:22:41;;;;;;;6.57;3.60;;;11.20;99.90;;;;;;10471013;28;20265;-87
2024/01/13 17:27:44;;;;;;;9.23;3.93;;;11.40;99.90;;;;;;10470473;28;20281;-88
2024/01/13 17:32:48;;;;;;;7.67;4.50;;;11.60;99.90;;;;;;10462006;28;20222;-89
2024/01/13 17:37:52;;;;;;;7.90;5.07;;;11.50;99.90;;;;;;10465812;28;20261;-86
2024/01/13 17:42:55;;;;;;;7.30;5.30;;;11.20;99.90;;;;;;10454929;28;20229;-87
2024/01/13 17:47:57;;;;;;;6.07;4.47;;;10.70;99.90;;;;;;10455437;28;20604;-87
2024/01/13 17:53:01;;;;;;;5.17;3.93;;;10.50;99.90;;;;;;10454267;28;20615;-87
2024/01/13 17:58:03;;;;;;;6.67;3.37;;;10.40;99.90;;;;;;10453401;28;20262;-87
2024/01/13 18:03:06;;;;;;;3.13;2.83;;;10.20;99.90;;;;;;10453950;28;20578;-87
2024/01/13 18:08:09;;;;;;;4.77;2.83;;;10.70;99.90;;;;;;10454636;28;20187;-87
2024/01/13 18:13:11;;;;;;;4.97;2.60;;;10.50;99.90;;;;;;10453802;28;20553;-87
2024/01/13 18:18:13;;;;;;;4.00;3.30;;;10.70;99.90;;;;;;10454111;28;20257;-87
2024/01/13 18:23:16;;;;;;;5.33;2.60;;;10.60;99.90;;;;;;10488074;28;20240;-87
2024/01/13 18:28:19;;;;;;;7.63;3.07;;;10.90;99.90;;;;;;10494010;28;20285;-87
2024/01/13 18:33:22;;;;;;;4.43;2.77;;;11.00;99.90;;;;;;10467819;28;20257;-87
2024/01/13 18:38:25;;;;;;;4.80;3.33;;;10.70;99.90;;;;;;10453511;28;20201;-88
2024/01/13 18:43:27;;;;;;;3.00;2.47;;;11.00;99.90;;;;;;10451322;28;20201;-88
2024/01/13 18:48:29;;;;;;;4.93;3.57;;;11.00;99.90;;;;;;10453094;28;20242;-87
2024/01/13 18:53:32;;;;;;;4.73;3.20;;;11.10;99.90;;;;;;10452594;28;20262;-88
2024/01/13 18:58:35;;;;;;;3.60;2.43;;;11.10;99.90;;;;;;10452615;28;20200;-88
2024/01/13 19:03:37;;;;;;;5.23;3.97;;;11.10;99.90;;;;;;10451827;28;20539;-87
2024/01/13 19:08:40;;;;;;;5.13;3.27;;;11.20;99.90;;;;;;10488858;28;20602;-88
2024/01/13 19:13:43;;;;;;;3.43;2.50;;;11.30;99.90;;;;;;10493678;28;20266;-88
2024/01/13 19:18:45;;;;;;;6.80;5.23;;;11.20;99.90;;;;;;10478930;28;20221;-85
2024/01/13 19:23:48;;;;;;;6.90;3.67;;;10.50;99.90;;;;;;10485326;28;20659;-83
2024/01/13 19:28:50;;;;;;;4.50;2.73;;;10.60;99.90;;;;;;10480954;28;20632;-83
2024/01/13 19:33:53;;;;;;;4.20;3.43;;;10.80;99.90;;;;;;10472712;28;20232;-82
2024/01/13 19:38:56;;;;;;;3.17;2.67;;;11.00;99.90;;;;;;10456432;28;20304;-82
2024/01/13 19:43:58;;;;;;;5.40;3.90;;;11.20;99.90;;;;;;10465824;28;20681;-82
2024/01/13 19:49:01;;;;;;;3.77;2.23;;;11.20;99.90;;;;;;10473668;28;20239;-82
2024/01/13 19:54:04;;;;;;;3.67;2.57;;;11.30;99.90;;;;;;10483584;28;20263;-82
2024/01/13 19:59:07;;;;;;;3.83;3.07;;;11.40;99.90;;;;;;10506622;28;20311;-81
2024/01/13 20:04:10;;;;;;;4.83;2.70;;;11.50;99.90;;;;;;10472526;28;20684;-80
2024/01/13 20:09:12;;;;;;;2.77;2.23;;;11.60;99.90;;;;;;10497549;28;20239;-81
2024/01/13 20:14:15;;;;;;;3.40;2.50;;;11.40;99.90;;;;;;10486751;28;20250;-81
2024/01/13 20:19:17;;;;;;;9.27;3.33;;;11.50;99.90;;;;;;10498385;28;20611;-82
2024/01/13 20:24:21;;;;;;;5.90;3.97;;;11.70;99.90;;;;;;10493411;28;20222;-81
2024/01/13 20:29:27;;;;;;;3.77;3.03;;;11.70;99.90;;;;;;10497846;28;20293;-81
2024/01/13 20:34:29;;;;;;;4.73;2.60;;;11.50;99.90;;;;;;10500350;28;20234;-83
2024/01/13 20:39:32;;;;;;;3.70;2.63;;;11.60;99.90;;;;;;10499421;28;20204;-81
2024/01/13 20:44:36;;;;;;;5.37;3.07;;;11.70;99.90;;;;;;10478919;28;20219;-82
2024/01/13 20:49:39;;;;;;;4.60;1.90;;;11.90;99.90;;;;;;10462097;28;20258;-82
2024/01/13 20:54:41;;;;;;;4.23;1.30;;;11.70;99.90;;;;;;10456314;28;20210;-82
2024/01/13 20:59:44;;;;;;;6.40;2.33;;;11.80;99.90;;;;;;10466494;28;20244;-82
2024/01/13 21:04:46;;;;;;;4.43;2.90;;;12.00;99.90;;;;;;10481544;28;20282;-82
2024/01/13 21:09:53;;;;;;;2.93;2.17;;;11.90;99.90;;;;;;10474336;28;20247;-82
2024/01/13 21:14:56;;;;;;;2.87;2.13;;;12.10;99.90;;;;;;10477128;28;20249;-81
2024/01/13 21:19:58;;;;;;;5.20;2.70;;;12.20;99.90;;;;;;10495269;28;20260;-82
2024/01/13 21:25:01;;;;;;;2.13;1.93;;;12.00;99.90;;;;;;10495367;28;20253;-82
2024/01/13 21:30:09;;;;;;;4.97;2.42;;;11.70;99.90;;;;;;10203406;28;10000521;-82
2024/01/13 21:35:13;;;;;;;5.03;4.03;;;12.00;99.90;;;;;;10490244;28;20493;-81
2024/01/13 21:40:16;;;;;;;3.13;2.17;;;11.80;99.90;;;;;;10494194;28;20665;-81
2024/01/13 21:45:22;;;;;;;3.60;2.97;;;12.00;99.90;;;;;;10495053;28;20280;-81
2024/01/13 21:50:24;;;;;;;2.57;1.77;;;11.90;99.90;;;;;;10488521;28;20580;-82
2024/01/13 21:55:27;;;;;;;5.40;1.73;;;12.00;99.90;;;;;;10492036;28;20227;-81
2024/01/13 22:00:29;;;;;;;2.43;2.23;;;12.00;99.90;;;;;;10486824;28;20768;-83
2024/01/13 22:05:33;;;;;;;3.57;3.20;;;11.80;99.90;;;;;;10487394;28;20667;-82
2024/01/13 22:10:36;;;;;;;3.30;3.00;;;12.00;99.90;;;;;;10485968;28;20273;-82
2024/01/13 22:15:39;;;;;;;2.83;1.97;;;11.90;99.90;;;;;;10487976;28;20226;-82
2024/01/13 22:20:42;;;;;;;1.60;1.30;;;12.10;99.90;;;;;;10452125;28;20244;-82
2024/01/13 22:25:44;;;;;;;3.97;2.13;;;11.80;99.90;;;;;;10470554;28;20262;-82
2024/01/13 22:30:47;;;;;;;3.73;2.67;;;12.10;99.90;;;;;;10479229;28;20724;-82
2024/01/13 22:35:51;;;;;;;2.70;2.30;;;12.10;99.90;;;;;;10487091;28;20209;-82
2024/01/13 22:40:53;;;;;;;3.00;1.90;;;11.80;99.90;;;;;;10485583;28;20741;-82
2024/01/13 22:46:12;;;;;;;3.70;2.73;;;11.90;99.90;;;;;;10463538;28;20644;-82
2024/01/13 22:51:15;;;;;;;1.33;1.03;;;12.00;99.90;;;;;;10454323;28;20822;-82
2024/01/13 22:56:17;;;;;;;1.33;1.10;;;11.80;99.90;;;;;;10486244;28;20259;-82
2024/01/13 23:01:20;;;;;;;2.23;1.20;;;11.80;99.90;;;;;;10474943;28;20239;-82
2024/01/13 23:06:24;;;;;;;3.07;1.97;;;11.60;99.90;;;;;;10485816;28;20258;-83
2024/01/13 23:11:27;;;;;;;2.13;1.67;;;11.50;99.90;;;;;;10470824;28;20228;-82
2024/01/13 23:16:30;;;;;;;5.27;3.53;;;11.80;99.90;;;;;;10447370;28;20241;-82
2024/01/13 23:21:34;;;;;;;3.60;2.53;;;11.90;99.90;;;;;;10492357;28;20226;-82
2024/01/13 23:26:36;;;;;;;2.93;2.00;;;11.70;99.90;;;;;;10494101;28;20264;-81
2024/01/13 23:31:39;;;;;;;2.80;2.33;;;11.90;99.90;;;;;;10481795;28;20284;-82
2024/01/13 23:36:42;;;;;;;3.10;1.67;;;11.80;99.90;;;;;;10491224;28;20255;-82
2024/01/13 23:41:44;;;;;;;1.93;1.70;;;11.70;99.90;;;;;;10482189;28;20239;-82
2024/01/13 23:46:47;;;;;;;5.80;2.30;;;11.90;99.90;;;;;;10497372;28;20257;-82
2024/01/13 23:51:49;;;;;;;3.87;2.50;;;11.50;99.90;;;;;;10474942;28;20231;-82
2024/01/13 23:56:55;;;;;;;3.33;2.60;;;11.30;99.90;;;;;;10487069;28;20228;-83
